Time;durP1;ratioP1;P1;durP2;ratioP2;P2;SDS_P1;SDS_P2;PMS_P1;PMS_P2;Temp;Humidity;BMP_temperature;BMP_pressure;BME280_temperature;BME280_humidity;BME280_pressure;Samples;Min_cycle;Max_cycle;Signal;HPM_P1;HPM_P2
2021/03/14 00:00:08;;;;;;;22.40;5.15;;;11.90;99.90;;;;;;4970162;28;20022;-78
2021/03/14 00:02:40;;;;;;;17.17;3.70;;;11.80;99.90;;;;;;4967680;28;20039;-76
2021/03/14 00:05:07;;;;;;;20.55;4.63;;;11.70;99.90;;;;;;4961347;28;20046;-81
2021/03/14 00:07:41;;;;;;;7.25;3.20;;;11.80;99.90;;;;;;4973393;28;20381;-75
2021/03/14 00:10:08;;;;;;;16.35;3.70;;;12.00;99.90;;;;;;4972612;28;20027;-78
2021/03/14 00:12:34;;;;;;;13.10;3.05;;;12.00;99.90;;;;;;4966511;28;20054;-79
2021/03/14 00:15:01;;;;;;;16.63;3.17;;;12.00;99.90;;;;;;4966573;28;20441;-78
2021/03/14 00:17:27;;;;;;;15.43;3.00;;;12.00;99.90;;;;;;4968729;28;20485;-78
2021/03/14 00:19:54;;;;;;;15.98;3.25;;;12.00;99.90;;;;;;4960026;28;20031;-76
2021/03/14 00:22:20;;;;;;;13.38;3.88;;;12.00;99.90;;;;;;4962613;28;20015;-75
2021/03/14 00:24:46;;;;;;;8.70;2.88;;;12.00;99.90;;;;;;4962297;28;20482;-77
2021/03/14 00:27:12;;;;;;;11.98;3.35;;;12.00;99.90;;;;;;4987647;28;20051;-76
2021/03/14 00:29:38;;;;;;;8.77;3.40;;;12.10;99.90;;;;;;4964323;28;20031;-76
2021/03/14 00:32:04;;;;;;;16.50;3.92;;;12.10;99.90;;;;;;4963124;28;20038;-76
2021/03/14 00:34:31;;;;;;;20.88;6.22;;;12.10;99.90;;;;;;4963800;28;20095;-75
2021/03/14 00:36:58;;;;;;;15.32;4.82;;;12.00;99.90;;;;;;4961884;28;20034;-78
2021/03/14 00:39:24;;;;;;;9.07;3.38;;;11.90;99.90;;;;;;4967464;28;20089;-75
2021/03/14 00:41:50;;;;;;;13.95;2.83;;;11.90;99.90;;;;;;4965030;28;20520;-75
2021/03/14 00:44:16;;;;;;;17.70;3.58;;;11.80;99.90;;;;;;4964579;28;20046;-78
2021/03/14 00:46:43;;;;;;;14.38;3.25;;;11.90;99.90;;;;;;4967379;28;20066;-79
2021/03/14 00:49:15;;;;;;;12.73;3.17;;;11.90;99.90;;;;;;4967701;28;20026;-76
2021/03/14 00:51:41;;;;;;;;;;;11.90;99.90;;;;;;4971292;28;20023;-77
2021/03/14 00:54:07;;;;;;;14.98;3.42;;;12.00;99.90;;;;;;4965835;28;19910;-75
2021/03/14 00:56:33;;;;;;;16.50;3.55;;;11.90;99.90;;;;;;4971202;28;20589;-75
2021/03/14 00:58:58;;;;;;;24.25;4.45;;;12.00;99.90;;;;;;4967638;28;20421;-75
2021/03/14 01:01:24;;;;;;;9.63;3.35;;;11.90;99.90;;;;;;4966260;28;20020;-75
2021/03/14 01:03:50;;;;;;;21.15;4.43;;;11.90;99.90;;;;;;4965785;28;20481;-75
2021/03/14 01:06:16;;;;;;;22.52;3.75;;;11.90;99.90;;;;;;4962404;28;20111;-76
2021/03/14 01:08:42;;;;;;;20.55;3.80;;;11.90;99.90;;;;;;4963699;28;20035;-77
2021/03/14 01:11:08;;;;;;;15.63;4.45;;;11.90;99.90;;;;;;4965745;28;20037;-78
2021/03/14 01:13:37;;;;;;;25.30;4.45;;;11.80;99.90;;;;;;4969679;28;20027;-80
2021/03/14 01:16:03;;;;;;;18.52;3.40;;;11.70;99.90;;;;;;4965443;28;20042;-75
2021/03/14 01:18:29;;;;;;;19.75;3.95;;;11.80;99.90;;;;;;4965880;28;20063;-75
2021/03/14 01:20:55;;;;;;;17.15;4.05;;;11.80;99.90;;;;;;4969236;28;20437;-76
2021/03/14 01:23:21;;;;;;;14.07;3.60;;;11.80;99.90;;;;;;4970058;28;20026;-76
2021/03/14 01:25:47;;;;;;;16.85;3.90;;;11.70;99.90;;;;;;4968323;28;20033;-77
2021/03/14 01:28:13;;;;;;;18.73;3.85;;;11.70;99.90;;;;;;4962447;28;20054;-77
2021/03/14 01:30:38;;;;;;;14.25;3.60;;;11.70;99.90;;;;;;4963304;28;20419;-76
2021/03/14 01:33:04;;;;;;;19.20;7.18;;;11.60;99.90;;;;;;4966074;28;20022;-78
2021/03/14 01:35:30;;;;;;;30.92;4.25;;;11.70;99.90;;;;;;4969243;28;20405;-75
2021/03/14 01:37:56;;;;;;;19.38;3.65;;;11.70;99.90;;;;;;4968859;28;20566;-75
2021/03/14 01:40:23;;;;;;;22.85;4.18;;;11.70;99.90;;;;;;4955453;28;20027;-74
2021/03/14 01:42:49;;;;;;;12.40;3.63;;;11.70;99.90;;;;;;4965297;28;20023;-75
2021/03/14 01:45:16;;;;;;;14.43;3.65;;;11.80;99.90;;;;;;4969322;28;20026;-75
2021/03/14 01:47:49;;;;;;;21.55;3.47;;;11.70;99.90;;;;;;4971408;28;20018;-76
2021/03/14 01:50:21;;;;;;;21.25;4.50;;;11.70;99.90;;;;;;4964533;28;20114;-78
2021/03/14 01:52:47;;;;;;;25.55;4.63;;;11.80;99.90;;;;;;4965768;28;20081;-76
2021/03/14 01:55:16;;;;;;;14.68;4.57;;;11.70;99.90;;;;;;4964372;28;20043;-77
2021/03/14 01:57:42;;;;;;;19.52;5.90;;;11.70;99.90;;;;;;4958876;28;20046;-76
2021/03/14 02:00:12;;;;;;;21.60;6.32;;;11.70;99.90;;;;;;4971903;28;20145;-76
2021/03/14 02:02:39;;;;;;;20.42;4.65;;;11.70;99.90;;;;;;4965298;28;20022;-76
2021/03/14 02:05:07;;;;;;;19.98;4.07;;;11.80;99.90;;;;;;4962919;28;20024;-77
2021/03/14 02:07:36;;;;;;;14.13;3.22;;;11.80;99.90;;;;;;4963835;28;20725;-75
2021/03/14 02:10:03;;;;;;;15.15;4.88;;;11.70;99.90;;;;;;4968749;28;20023;-74
2021/03/14 02:12:38;;;;;;;20.30;5.47;;;11.70;99.90;;;;;;4963218;28;20026;-76
2021/03/14 02:15:06;;;;;;;20.80;6.20;;;11.70;99.90;;;;;;4969199;28;20027;-75
2021/03/14 02:17:35;;;;;;;19.25;4.22;;;11.80;99.90;;;;;;4972256;28;20058;-77
2021/03/14 02:20:19;;;;;;;23.73;4.57;;;11.80;99.90;;;;;;4976370;28;20125;-78
2021/03/14 02:22:48;;;;;;;20.73;5.60;;;11.80;99.90;;;;;;4968699;28;20027;-75
2021/03/14 02:25:31;;;;;;;22.58;4.82;;;11.80;99.90;;;;;;4963317;28;20078;-77
2021/03/14 02:28:06;;;;;;;10.10;3.05;;;11.80;99.90;;;;;;4966236;28;20046;-74
2021/03/14 02:30:33;;;;;;;21.05;4.45;;;11.80;99.90;;;;;;4962410;28;20035;-78
2021/03/14 02:32:59;;;;;;;20.63;4.70;;;11.80;99.90;;;;;;4965127;28;20031;-74
2021/03/14 02:35:27;;;;;;;21.33;5.40;;;11.80;99.90;;;;;;4964243;28;20031;-76
2021/03/14 02:37:54;;;;;;;18.30;4.30;;;11.70;99.90;;;;;;4972362;28;20074;-75
2021/03/14 02:40:21;;;;;;;21.95;4.25;;;11.60;99.90;;;;;;4958723;28;20094;-74
2021/03/14 02:42:49;;;;;;;18.13;4.15;;;11.70;99.90;;;;;;4970970;28;20031;-75
2021/03/14 02:45:17;;;;;;;18.20;4.50;;;11.60;99.90;;;;;;4966675;28;20027;-75
2021/03/14 02:47:44;;;;;;;34.88;4.50;;;11.70;99.90;;;;;;4990241;28;20078;-75
2021/03/14 02:50:16;;;;;;;24.13;6.05;;;11.70;99.90;;;;;;4965552;28;20030;-75
2021/03/14 02:52:44;;;;;;;18.35;4.85;;;11.70;99.90;;;;;;4966731;28;20026;-75
2021/03/14 02:55:11;;;;;;;18.67;5.78;;;11.70;99.90;;;;;;4973051;28;20042;-75
2021/03/14 02:57:39;;;;;;;22.40;4.63;;;11.70;99.90;;;;;;4972939;28;20019;-77
2021/03/14 03:00:15;;;;;;;22.98;3.92;;;11.70;99.90;;;;;;4967211;28;20051;-77
2021/03/14 03:02:47;;;;;;;22.08;5.05;;;11.70;99.90;;;;;;4974089;28;20451;-78
2021/03/14 03:05:14;;;;;;;;;;;11.80;99.90;;;;;;4970711;28;20030;-77
2021/03/14 03:07:41;;;;;;;21.00;3.38;;;11.80;99.90;;;;;;4970676;28;19914;-76
2021/03/14 03:10:08;;;;;;;23.30;4.45;;;11.80;99.90;;;;;;4967615;28;20050;-77
2021/03/14 03:12:35;;;;;;;13.85;4.90;;;11.70;99.90;;;;;;4967935;28;20089;-75
2021/03/14 03:15:01;;;;;;;18.52;4.20;;;11.70;99.90;;;;;;4958478;28;20035;-78
2021/03/14 03:17:28;;;;;;;16.67;3.20;;;11.70;99.90;;;;;;4967684;28;20033;-77
2021/03/14 03:19:56;;;;;;;24.00;4.00;;;11.70;99.90;;;;;;4965265;28;20065;-77
2021/03/14 03:22:22;;;;;;;12.80;4.03;;;11.70;99.90;;;;;;4970246;28;20073;-78
2021/03/14 03:24:51;;;;;;;14.50;3.30;;;11.70;99.90;;;;;;4966928;28;20102;-76
2021/03/14 03:27:17;;;;;;;16.05;4.20;;;11.70;99.90;;;;;;4971195;28;20028;-75
2021/03/14 03:29:44;;;;;;;17.95;3.88;;;11.70;99.90;;;;;;4968997;28;20488;-75
2021/03/14 03:32:10;;;;;;;27.08;4.97;;;11.80;99.90;;;;;;4963837;28;20039;-75
2021/03/14 03:34:36;;;;;;;22.10;5.40;;;11.80;99.90;;;;;;4967125;28;20485;-76
2021/03/14 03:37:02;;;;;;;19.80;3.45;;;11.70;99.90;;;;;;4957917;28;20024;-76
2021/03/14 03:39:27;;;;;;;24.05;4.50;;;11.70;99.90;;;;;;4966760;28;20389;-76
2021/03/14 03:42:19;;;;;;;20.65;4.60;;;11.90;99.90;;;;;;4973279;28;20026;-75
2021/03/14 03:44:46;;;;;;;21.38;6.05;;;11.90;99.90;;;;;;4962370;28;20070;-75
2021/03/14 03:47:15;;;;;;;15.23;4.18;;;11.80;99.90;;;;;;4961429;28;20030;-76
2021/03/14 03:49:46;;;;;;;17.42;3.50;;;11.70;99.90;;;;;;4966489;28;20030;-76
2021/03/14 03:52:15;;;;;;;18.33;4.97;;;11.70;99.90;;;;;;4965600;28;20123;-78
2021/03/14 03:54:42;;;;;;;14.68;3.80;;;11.70;99.90;;;;;;4971035;28;20081;-75
2021/03/14 03:57:19;;;;;;;18.05;4.20;;;11.70;99.90;;;;;;4967958;28;20035;-76
2021/03/14 03:59:47;;;;;;;15.73;3.50;;;11.70;99.90;;;;;;4971136;28;20520;-75
2021/03/14 04:02:15;;;;;;;21.38;3.70;;;11.70;99.90;;;;;;4973029;28;20477;-76
2021/03/14 04:04:43;;;;;;;17.20;4.18;;;11.70;99.90;;;;;;4965277;28;20019;-77
2021/03/14 04:07:11;;;;;;;13.25;3.55;;;11.60;99.90;;;;;;4963753;28;20058;-76
2021/03/14 04:09:38;;;;;;;12.55;3.95;;;11.60;99.90;;;;;;4966287;28;20063;-76
2021/03/14 04:12:07;;;;;;;22.65;4.25;;;11.60;99.90;;;;;;4974814;28;20482;-75
2021/03/14 04:14:33;;;;;;;14.57;3.75;;;11.70;99.90;;;;;;4968411;28;20034;-76
2021/03/14 04:17:01;;;;;;;9.00;3.47;;;11.60;99.90;;;;;;4969522;28;20041;-78
2021/03/14 04:19:54;;;;;;;12.93;4.63;;;11.70;99.90;;;;;;4968515;28;20363;-75
2021/03/14 04:22:21;;;;;;;15.48;3.35;;;11.70;99.90;;;;;;4963833;28;20041;-76
2021/03/14 04:24:48;;;;;;;18.45;4.40;;;11.70;99.90;;;;;;4966837;28;20426;-78
2021/03/14 04:27:15;;;;;;;13.00;3.38;;;11.80;99.90;;;;;;4966959;28;20397;-76
2021/03/14 04:29:43;;;;;;;10.88;3.47;;;11.80;99.90;;;;;;4969408;28;20062;-76
2021/03/14 04:32:10;;;;;;;16.00;3.30;;;11.80;99.90;;;;;;4966770;28;20078;-76
2021/03/14 04:34:38;;;;;;;18.98;4.10;;;11.70;99.90;;;;;;4972362;28;20031;-75
2021/03/14 04:37:07;;;;;;;16.50;4.10;;;11.80;99.90;;;;;;4967883;28;20113;-76
2021/03/14 04:39:33;;;;;;;9.10;2.67;;;11.80;99.90;;;;;;4968688;28;20073;-76
2021/03/14 04:42:00;;;;;;;24.40;4.65;;;11.70;99.90;;;;;;4961778;28;20520;-76
2021/03/14 04:44:27;;;;;;;16.65;4.25;;;11.70;99.90;;;;;;4969498;28;20664;-76
2021/03/14 04:46:53;;;;;;;23.05;5.85;;;11.70;99.90;;;;;;4966072;28;20544;-76
2021/03/14 04:49:19;;;;;;;11.15;3.15;;;11.60;99.90;;;;;;4963663;28;20031;-76
2021/03/14 04:51:46;;;;;;;14.02;3.50;;;11.70;99.90;;;;;;4963451;28;20027;-76
2021/03/14 04:54:13;;;;;;;16.98;4.43;;;11.60;99.90;;;;;;4965504;28;20135;-75
2021/03/14 04:56:41;;;;;;;22.63;4.82;;;11.60;99.90;;;;;;4969428;28;20034;-76
2021/03/14 04:59:31;;;;;;;11.30;3.35;;;11.70;99.90;;;;;;4965304;28;20023;-76
2021/03/14 05:02:01;;;;;;;9.60;3.50;;;11.70;99.90;;;;;;4960817;28;20038;-76
2021/03/14 05:04:32;;;;;;;19.77;4.70;;;11.80;99.90;;;;;;4971968;28;20022;-77
2021/03/14 05:06:58;;;;;;;13.35;2.90;;;11.70;99.90;;;;;;4968232;28;20497;-76
2021/03/14 05:09:25;;;;;;;15.05;3.95;;;11.80;99.90;;;;;;4961504;28;20077;-75
2021/03/14 05:11:52;;;;;;;11.65;3.97;;;11.70;99.90;;;;;;4967152;28;21873;-76
2021/03/14 05:14:25;;;;;;;9.13;3.83;;;11.70;99.90;;;;;;4958778;28;20030;-76
2021/03/14 05:16:51;;;;;;;13.38;3.30;;;11.70;99.90;;;;;;4961706;28;20126;-75
2021/03/14 05:19:17;;;;;;;16.88;4.03;;;11.70;99.90;;;;;;4965033;28;20167;-76
2021/03/14 05:21:43;;;;;;;16.58;3.58;;;11.70;99.90;;;;;;4967908;28;20031;-75
2021/03/14 05:24:13;;;;;;;14.93;4.72;;;11.70;99.90;;;;;;4969334;28;20084;-76
2021/03/14 05:26:43;;;;;;;11.05;2.92;;;11.70;99.90;;;;;;4966930;28;20026;-77
2021/03/14 05:29:12;;;;;;;12.93;4.40;;;11.70;99.90;;;;;;4964276;28;20038;-76
2021/03/14 05:31:40;;;;;;;13.18;3.50;;;11.70;99.90;;;;;;4965331;28;20714;-78
2021/03/14 05:34:08;;;;;;;13.55;3.55;;;11.80;99.90;;;;;;4965361;28;20031;-76
2021/03/14 05:36:34;;;;;;;12.93;3.40;;;11.80;99.90;;;;;;4966552;28;20095;-76
2021/03/14 05:39:02;;;;;;;10.98;3.40;;;11.70;99.90;;;;;;4968642;28;20038;-76
2021/03/14 05:41:28;;;;;;;15.02;3.38;;;11.70;99.90;;;;;;4963209;28;20051;-76
2021/03/14 05:43:54;;;;;;;14.70;4.97;;;11.70;99.90;;;;;;4964707;28;20054;-76
2021/03/14 05:46:22;;;;;;;13.27;3.58;;;11.80;99.90;;;;;;4960903;28;20038;-76
2021/03/14 05:48:48;;;;;;;14.02;3.58;;;11.80;99.90;;;;;;4971481;28;20589;-76
2021/03/14 05:51:27;;;;;;;11.73;3.28;;;11.70;99.90;;;;;;4969902;28;20035;-76
2021/03/14 05:53:55;;;;;;;14.13;4.38;;;11.80;99.90;;;;;;4965004;28;20059;-76
2021/03/14 05:56:22;;;;;;;11.35;3.70;;;11.80;99.90;;;;;;4962668;28;20065;-76
2021/03/14 05:58:50;;;;;;;10.98;3.10;;;11.80;99.90;;;;;;4967981;28;20031;-76
2021/03/14 06:01:19;;;;;;;15.30;4.13;;;11.80;99.90;;;;;;4970217;28;20027;-76
2021/03/14 06:03:45;;;;;;;11.43;2.75;;;11.80;99.90;;;;;;4989015;28;21531;-76
2021/03/14 06:06:14;;;;;;;11.63;3.25;;;11.80;99.90;;;;;;4971096;28;20031;-76
2021/03/14 06:08:41;;;;;;;18.60;4.40;;;11.70;99.90;;;;;;4972294;28;20038;-76
2021/03/14 06:11:08;;;;;;;12.27;3.40;;;11.70;99.90;;;;;;4974093;28;20486;-76
2021/03/14 06:13:35;;;;;;;20.40;3.83;;;11.70;99.90;;;;;;4967576;28;20027;-76
2021/03/14 06:16:01;;;;;;;12.07;4.55;;;11.70;99.90;;;;;;4967812;28;20059;-76
2021/03/14 06:18:30;;;;;;;19.08;3.70;;;11.80;99.90;;;;;;4975958;28;20049;-76
2021/03/14 06:20:56;;;;;;;12.48;3.08;;;11.90;99.90;;;;;;4970320;28;20022;-76
2021/03/14 06:23:23;;;;;;;20.98;5.70;;;11.90;99.90;;;;;;4971277;28;20025;-76
2021/03/14 06:25:54;;;;;;;15.18;4.72;;;11.90;99.90;;;;;;4967464;28;20046;-75
2021/03/14 06:28:40;;;;;;;17.85;3.38;;;12.00;99.90;;;;;;4958036;28;20055;-76
2021/03/14 06:31:19;;;;;;;13.85;3.50;;;12.00;99.90;;;;;;4972335;28;20031;-76
2021/03/14 06:33:46;;;;;;;18.67;4.20;;;12.00;99.90;;;;;;4964300;28;20125;-76
2021/03/14 06:36:20;;;;;;;12.82;3.35;;;12.10;99.90;;;;;;4970404;28;20125;-76
2021/03/14 06:38:54;;;;;;;14.27;3.70;;;12.10;99.90;;;;;;4969683;28;20030;-76
2021/03/14 06:41:23;;;;;;;26.45;4.22;;;12.10;99.90;;;;;;4972453;28;20031;-76
2021/03/14 06:43:50;;;;;;;14.50;3.40;;;12.20;99.90;;;;;;4974274;28;20096;-76
2021/03/14 06:46:33;;;;;;;16.15;3.40;;;12.20;99.90;;;;;;4974821;28;20027;-76
2021/03/14 06:49:18;;;;;;;12.45;3.05;;;12.30;99.90;;;;;;4973687;28;20045;-76
2021/03/14 06:51:58;;;;;;;13.48;3.22;;;12.30;99.90;;;;;;4971654;28;20231;-76
2021/03/14 06:54:24;;;;;;;12.20;3.63;;;12.20;99.90;;;;;;4970200;28;20033;-76
2021/03/14 06:57:01;;;;;;;15.10;3.50;;;12.20;99.90;;;;;;4973589;28;20488;-76
2021/03/14 06:59:31;;;;;;;11.85;3.03;;;12.30;99.90;;;;;;4970703;28;20038;-76
2021/03/14 07:02:03;;;;;;;13.70;4.60;;;12.20;99.90;;;;;;4977894;28;20496;-76
2021/03/14 07:04:38;;;;;;;;;;;12.30;99.90;;;;;;4967990;28;20031;-76
2021/03/14 07:07:04;;;;;;;14.48;3.75;;;12.30;99.90;;;;;;4969238;28;19921;-76
2021/03/14 07:09:40;;;;;;;9.48;3.13;;;12.40;99.90;;;;;;4967714;28;20038;-77
2021/03/14 07:12:26;;;;;;;13.82;3.70;;;12.40;99.90;;;;;;4967185;28;20708;-76
2021/03/14 07:14:53;;;;;;;8.77;3.28;;;12.50;99.90;;;;;;4972473;28;20031;-76
2021/03/14 07:17:33;;;;;;;15.32;3.92;;;12.50;99.90;;;;;;4963903;28;20035;-76
2021/03/14 07:20:05;;;;;;;20.55;4.05;;;12.60;99.90;;;;;;4968336;28;20027;-76
2021/03/14 07:22:31;;;;;;;14.53;3.33;;;12.60;99.90;;;;;;4969038;28;20041;-76
2021/03/14 07:24:57;;;;;;;8.77;3.40;;;12.60;99.90;;;;;;4972859;28;20038;-76
2021/03/14 07:27:25;;;;;;;15.90;3.72;;;12.60;99.90;;;;;;4973758;28;20027;-76
2021/03/14 07:29:55;;;;;;;11.38;3.40;;;12.70;99.90;;;;;;4964292;28;20110;-76
2021/03/14 07:32:21;;;;;;;10.75;3.20;;;12.70;99.90;;;;;;4974639;28;20030;-76
2021/03/14 07:34:47;;;;;;;11.70;3.70;;;12.80;99.90;;;;;;4956844;28;20121;-76
2021/03/14 07:37:14;;;;;;;13.57;3.33;;;12.90;99.90;;;;;;4961906;28;20023;-76
2021/03/14 07:39:41;;;;;;;6.93;3.25;;;13.10;99.90;;;;;;4957009;28;20031;-76
2021/03/14 07:42:10;;;;;;;8.32;2.72;;;13.20;99.90;;;;;;4964740;28;20094;-76
2021/03/14 07:44:37;;;;;;;12.65;4.05;;;13.30;99.90;;;;;;4972394;28;20496;-76
2021/03/14 07:47:03;;;;;;;16.58;3.13;;;13.40;99.90;;;;;;4964452;28;20037;-76
2021/03/14 07:49:29;;;;;;;14.07;2.70;;;13.50;99.90;;;;;;4975168;28;20023;-76
2021/03/14 07:52:04;;;;;;;11.40;3.85;;;13.60;99.90;;;;;;4975086;28;20033;-76
2021/03/14 07:54:46;;;;;;;11.13;3.03;;;13.80;99.90;;;;;;4975794;28;20030;-77
2021/03/14 07:57:13;;;;;;;9.93;3.00;;;13.90;99.90;;;;;;4981085;28;20119;-76
2021/03/14 07:59:42;;;;;;;11.10;3.67;;;14.00;99.90;;;;;;4961939;28;20031;-76
2021/03/14 08:02:17;;;;;;;13.38;3.22;;;14.10;99.90;;;;;;4967979;28;20031;-76
2021/03/14 08:04:50;;;;;;;10.38;3.40;;;14.20;99.90;;;;;;4975395;28;20018;-77
2021/03/14 08:07:42;;;;;;;17.63;3.42;;;14.10;99.90;;;;;;4973824;28;20500;-76
2021/03/14 08:10:10;;;;;;;8.23;2.60;;;14.20;99.90;;;;;;4974506;28;20063;-77
2021/03/14 08:12:41;;;;;;;13.88;3.50;;;14.30;99.90;;;;;;4974840;28;20025;-76
2021/03/14 08:15:28;;;;;;;11.15;3.08;;;14.50;99.90;;;;;;4972190;28;20117;-77
2021/03/14 08:17:55;;;;;;;20.58;3.53;;;14.60;99.90;;;;;;4973539;28;20019;-78
2021/03/14 08:20:45;;;;;;;11.40;3.10;;;14.60;99.90;;;;;;4960481;28;20023;-76
2021/03/14 08:23:16;;;;;;;11.13;3.08;;;14.70;99.90;;;;;;4974014;28;20021;-76
2021/03/14 08:25:46;;;;;;;15.75;3.78;;;14.80;99.90;;;;;;4973678;28;20417;-76
2021/03/14 08:28:30;;;;;;;7.80;2.58;;;14.70;99.90;;;;;;4972044;28;20090;-77
2021/03/14 08:31:01;;;;;;;11.18;4.10;;;14.80;99.90;;;;;;4956837;28;20027;-77
2021/03/14 08:33:30;;;;;;;16.35;3.35;;;14.80;99.90;;;;;;4973769;28;20027;-76
2021/03/14 08:36:00;;;;;;;19.67;5.30;;;14.80;99.90;;;;;;4974973;28;20037;-76
2021/03/14 08:38:52;;;;;;;20.75;4.97;;;14.80;99.90;;;;;;4958678;28;20023;-76
2021/03/14 08:41:27;;;;;;;15.07;4.18;;;14.80;99.90;;;;;;4956320;28;20031;-76
2021/03/14 08:44:00;;;;;;;10.38;2.88;;;14.80;99.90;;;;;;4973698;28;20023;-76
2021/03/14 08:46:48;;;;;;;11.68;3.35;;;14.90;99.90;;;;;;4967316;28;20031;-76
2021/03/14 08:49:16;;;;;;;12.63;2.53;;;15.00;99.90;;;;;;4969381;28;20074;-76
2021/03/14 08:51:42;;;;;;;13.30;3.42;;;15.10;99.90;;;;;;4974413;28;20030;-76
2021/03/14 08:54:09;;;;;;;8.35;3.42;;;15.30;99.90;;;;;;4960727;28;20035;-75
2021/03/14 08:56:35;;;;;;;12.32;3.53;;;15.40;99.90;;;;;;4968258;28;20050;-77
2021/03/14 08:59:09;;;;;;;23.60;4.50;;;15.60;99.90;;;;;;4959443;28;20070;-76
2021/03/14 09:01:36;;;;;;;18.80;4.82;;;15.60;99.90;;;;;;4972414;28;20085;-78
2021/03/14 09:04:16;;;;;;;12.63;3.60;;;15.60;99.90;;;;;;4960478;28;20026;-77
2021/03/14 09:06:42;;;;;;;17.15;4.10;;;15.60;99.90;;;;;;4973592;28;20039;-76
2021/03/14 09:09:13;;;;;;;16.10;3.72;;;15.50;99.90;;;;;;4966007;28;20022;-75
2021/03/14 09:11:50;;;;;;;18.38;3.90;;;15.50;99.90;;;;;;4974207;28;20031;-76
2021/03/14 09:14:21;;;;;;;6.97;2.95;;;15.50;99.90;;;;;;4974965;28;20061;-77
2021/03/14 09:16:49;;;;;;;15.13;4.97;;;15.40;99.90;;;;;;4976342;28;20050;-76
2021/03/14 09:19:31;;;;;;;10.60;4.13;;;15.30;99.90;;;;;;4973730;28;20042;-76
2021/03/14 09:22:01;;;;;;;14.98;4.93;;;15.30;99.90;;;;;;4960822;28;20033;-75
2021/03/14 09:24:36;;;;;;;11.75;3.70;;;15.20;99.90;;;;;;4972453;28;20018;-75
2021/03/14 09:27:08;;;;;;;14.85;4.40;;;15.30;99.90;;;;;;4971492;28;20470;-76
2021/03/14 09:29:35;;;;;;;;;;;15.30;99.90;;;;;;4967844;28;20046;-76
2021/03/14 09:32:04;;;;;;;12.52;3.83;;;15.30;99.90;;;;;;4987665;28;20388;-74
2021/03/14 09:34:30;;;;;;;15.20;4.68;;;15.30;99.90;;;;;;4973798;28;20038;-76
2021/03/14 09:36:57;;;;;;;14.60;3.55;;;15.20;99.90;;;;;;4978010;28;20384;-76
2021/03/14 09:39:26;;;;;;;12.80;4.68;;;15.20;99.90;;;;;;4975823;28;20485;-76
2021/03/14 09:41:52;;;;;;;14.80;3.13;;;15.00;99.90;;;;;;4960431;28;20437;-76
2021/03/14 09:44:19;;;;;;;19.67;5.72;;;14.90;99.90;;;;;;4960964;29;20047;-76
2021/03/14 09:47:01;;;;;;;19.20;5.03;;;14.60;99.90;;;;;;4970280;28;20043;-76
2021/03/14 09:49:27;;;;;;;20.52;3.63;;;14.60;99.90;;;;;;4965301;28;20062;-74
2021/03/14 09:51:57;;;;;;;19.45;4.55;;;14.50;99.90;;;;;;4975652;28;20553;-75
2021/03/14 09:54:24;;;;;;;11.98;5.28;;;14.50;99.90;;;;;;4973864;28;20473;-76
2021/03/14 09:56:56;;;;;;;10.13;4.43;;;14.60;99.90;;;;;;4959951;28;20102;-75
2021/03/14 09:59:25;;;;;;;12.95;3.85;;;14.80;99.90;;;;;;4974044;28;20050;-75
2021/03/14 10:01:52;;;;;;;9.57;3.95;;;14.90;99.90;;;;;;4968157;28;20489;-76
2021/03/14 10:04:19;;;;;;;15.35;4.20;;;15.10;99.90;;;;;;4965704;28;20027;-75
2021/03/14 10:06:46;;;;;;;12.90;3.72;;;15.10;99.90;;;;;;4975695;28;20395;-75
2021/03/14 10:09:31;;;;;;;21.38;5.90;;;15.30;99.90;;;;;;4969158;28;20031;-75
2021/03/14 10:11:57;;;;;;;20.98;3.50;;;15.30;99.90;;;;;;4973079;28;20033;-74
2021/03/14 10:14:23;;;;;;;19.08;4.30;;;15.40;99.90;;;;;;4972289;28;20041;-75
2021/03/14 10:16:50;;;;;;;10.23;4.70;;;15.40;99.90;;;;;;4966839;28;20043;-75
2021/03/14 10:19:17;;;;;;;13.23;3.67;;;15.40;99.90;;;;;;4966411;28;20082;-75
2021/03/14 10:21:47;;;;;;;18.13;4.47;;;15.50;99.90;;;;;;4973132;28;20046;-75
2021/03/14 10:24:19;;;;;;;11.48;4.22;;;15.50;99.90;;;;;;4959808;28;20545;-75
2021/03/14 10:27:03;;;;;;;11.73;4.38;;;15.50;99.90;;;;;;4974028;28;20085;-75
2021/03/14 10:29:32;;;;;;;26.63;5.65;;;15.50;99.90;;;;;;4983894;28;20035;-74
2021/03/14 10:31:58;;;;;;;12.40;5.40;;;15.40;99.90;;;;;;4979759;28;20501;-74
2021/03/14 10:34:25;;;;;;;13.38;5.38;;;15.30;99.90;;;;;;4978443;28;20402;-75
2021/03/14 10:36:53;;;;;;;10.93;4.05;;;15.00;99.90;;;;;;4967151;28;20066;-74
2021/03/14 10:39:29;;;;;;;10.38;3.05;;;14.80;99.90;;;;;;4971631;28;20034;-76
2021/03/14 10:41:56;;;;;;;11.38;3.95;;;14.90;99.90;;;;;;4974717;28;20023;-75
2021/03/14 10:44:24;;;;;;;16.38;3.63;;;14.70;99.90;;;;;;4980504;28;20029;-76
2021/03/14 10:46:52;;;;;;;14.30;4.28;;;14.50;99.90;;;;;;4972363;28;20031;-75
2021/03/14 10:49:26;;;;;;;9.50;3.20;;;14.40;99.90;;;;;;4970683;28;20037;-75
2021/03/14 10:52:00;;;;;;;12.25;3.67;;;14.00;99.90;;;;;;4966975;28;20042;-75
2021/03/14 10:54:34;;;;;;;12.35;3.40;;;13.40;99.90;;;;;;4973097;28;20034;-78
2021/03/14 10:57:00;;;;;;;23.38;5.43;;;13.00;99.90;;;;;;4974381;28;20053;-74
2021/03/14 10:59:31;;;;;;;10.27;3.30;;;12.70;99.90;;;;;;4972217;28;20493;-75
2021/03/14 11:02:13;;;;;;;23.27;4.07;;;12.40;99.90;;;;;;4982015;28;20462;-74
2021/03/14 11:04:40;;;;;;;17.63;4.20;;;12.30;99.90;;;;;;4963818;28;20027;-74
2021/03/14 11:07:27;;;;;;;24.50;4.90;;;12.20;99.90;;;;;;4959216;28;20108;-75
2021/03/14 11:10:12;;;;;;;13.50;3.20;;;12.10;99.90;;;;;;4959275;29;20029;-75
2021/03/14 11:12:40;;;;;;;16.33;3.92;;;12.10;99.90;;;;;;4971482;28;20031;-75
2021/03/14 11:15:07;;;;;;;9.32;2.33;;;12.00;99.90;;;;;;4972558;28;20039;-75
2021/03/14 11:17:35;;;;;;;7.45;2.08;;;11.80;99.90;;;;;;4966335;28;20031;-75
2021/03/14 11:20:04;;;;;;;4.80;2.20;;;11.70;99.90;;;;;;4963451;28;20054;-75
2021/03/14 11:22:30;;;;;;;9.43;2.10;;;11.50;99.90;;;;;;4971519;28;20109;-76
2021/03/14 11:24:56;;;;;;;10.10;2.92;;;11.60;99.90;;;;;;4966593;28;20069;-76
2021/03/14 11:27:21;;;;;;;7.82;2.95;;;11.60;99.90;;;;;;4966223;28;20030;-76
2021/03/14 11:29:47;;;;;;;8.75;2.92;;;11.60;99.90;;;;;;4976441;28;20500;-77
2021/03/14 11:32:13;;;;;;;8.82;2.55;;;11.50;99.90;;;;;;4977121;28;20108;-78
2021/03/14 11:34:45;;;;;;;13.23;3.72;;;11.40;99.90;;;;;;4962063;28;20035;-77
2021/03/14 11:37:12;;;;;;;22.67;5.38;;;11.30;99.90;;;;;;4972630;28;20037;-78
2021/03/14 11:39:38;;;;;;;24.98;3.50;;;11.30;99.90;;;;;;4960761;28;20023;-77
2021/03/14 11:42:05;;;;;;;11.98;2.47;;;11.30;99.90;;;;;;4973668;28;20031;-78
2021/03/14 11:44:31;;;;;;;5.85;2.22;;;11.10;99.90;;;;;;4982361;28;20057;-79
2021/03/14 11:46:57;;;;;;;4.70;2.58;;;11.00;99.90;;;;;;4979079;28;20023;-78
2021/03/14 11:49:23;;;;;;;10.32;3.10;;;11.00;99.90;;;;;;4975643;28;20054;-77
2021/03/14 11:51:49;;;;;;;9.77;2.40;;;10.80;99.90;;;;;;4976553;28;20022;-76
2021/03/14 11:54:18;;;;;;;9.02;2.95;;;10.50;99.90;;;;;;4976253;28;20069;-75
2021/03/14 11:56:45;;;;;;;8.07;3.38;;;10.30;99.90;;;;;;4967947;28;20429;-76
2021/03/14 11:59:11;;;;;;;9.25;2.90;;;10.10;99.90;;;;;;4973406;28;20445;-76
2021/03/14 12:01:37;;;;;;;13.00;5.47;;;10.10;99.90;;;;;;4976400;28;20042;-77
2021/03/14 12:04:04;;;;;;;9.32;5.00;;;10.10;99.90;;;;;;4975918;28;20101;-77
2021/03/14 12:06:30;;;;;;;15.20;4.68;;;10.30;99.90;;;;;;4975347;28;20027;-76
2021/03/14 12:08:57;;;;;;;12.88;5.40;;;10.30;99.90;;;;;;4974223;28;20077;-79
2021/03/14 12:11:22;;;;;;;9.55;5.15;;;10.30;99.90;;;;;;4971271;28;20421;-75
2021/03/14 12:13:48;;;;;;;7.03;4.00;;;10.20;99.90;;;;;;4974293;28;20118;-75
2021/03/14 12:16:14;;;;;;;17.05;6.07;;;10.20;99.90;;;;;;4970991;28;20023;-74
2021/03/14 12:18:40;;;;;;;4.38;1.83;;;10.10;99.90;;;;;;4957416;28;20024;-74
2021/03/14 12:21:08;;;;;;;4.47;1.10;;;9.60;99.90;;;;;;4974202;28;20028;-74
2021/03/14 12:23:36;;;;;;;1.38;0.77;;;9.00;99.90;;;;;;4972827;28;20037;-75
2021/03/14 12:26:04;;;;;;;6.63;1.38;;;8.50;99.90;;;;;;4990513;28;20062;-73
2021/03/14 12:28:31;;;;;;;1.38;0.75;;;7.90;99.90;;;;;;4975903;28;20023;-72
2021/03/14 12:30:58;;;;;;;0.85;0.55;;;7.30;99.90;;;;;;4964880;28;20038;-72
2021/03/14 12:33:24;;;;;;;1.40;0.60;;;6.70;99.90;;;;;;4965659;28;20070;-77
2021/03/14 12:35:50;;;;;;;2.03;0.50;;;6.50;99.90;;;;;;4955002;28;20035;-73
2021/03/14 12:38:17;;;;;;;3.83;0.20;;;6.20;99.90;;;;;;4972019;28;20537;-76
2021/03/14 12:40:46;;;;;;;1.15;0.30;;;6.00;99.90;;;;;;4963163;28;20085;-72
2021/03/14 12:43:13;;;;;;;1.35;0.52;;;5.60;99.90;;;;;;4973789;28;20023;-72
2021/03/14 12:45:39;;;;;;;3.63;0.70;;;5.40;99.90;;;;;;4964501;28;20038;-72
2021/03/14 12:48:06;;;;;;;0.65;0.65;;;5.10;99.90;;;;;;4972694;28;20535;-74
2021/03/14 12:50:32;;;;;;;1.90;0.85;;;5.00;99.90;;;;;;4972516;28;20417;-72